Time;durP1;ratioP1;P1;durP2;ratioP2;P2;SDS_P1;SDS_P2;PMS_P1;PMS_P2;Temp;Humidity;BMP_temperature;BMP_pressure;BME280_temperature;BME280_humidity;BME280_pressure;Samples;Min_cycle;Max_cycle;Signal;HPM_P1;HPM_P2
2021/12/25 00:01:28;;;;;;;2.45;0.60;;;;;;;25.38;32.09;95423.94;4982863;28;20037;-26
2021/12/25 00:03:54;;;;;;;1.33;0.80;;;;;;;25.39;32.07;95427.38;4982511;28;20034;-28
2021/12/25 00:06:19;;;;;;;0.75;0.40;;;;;;;25.38;32.06;95425.72;4984507;28;20190;-27
2021/12/25 00:08:45;;;;;;;2.40;0.60;;;;;;;25.39;32.04;95424.75;4980961;28;20034;-29
2021/12/25 00:11:11;;;;;;;0.82;0.65;;;;;;;25.39;32.12;95419.50;4966949;28;20464;-26
2021/12/25 00:13:37;;;;;;;2.45;0.73;;;;;;;25.40;31.95;95421.22;4938890;28;20026;-27
2021/12/25 00:16:03;;;;;;;1.75;0.70;;;;;;;25.39;31.92;95419.50;4973756;28;20034;-27
2021/12/25 00:18:28;;;;;;;1.00;0.68;;;;;;;25.39;32.01;95416.88;4990055;28;20069;-29
2021/12/25 00:20:54;;;;;;;0.52;0.50;;;;;;;25.40;32.15;95415.97;4954536;28;20034;-28
2021/12/25 00:23:19;;;;;;;2.30;0.88;;;;;;;25.40;31.87;95410.72;4985501;28;20022;-28
2021/12/25 00:25:50;;;;;;;0.93;0.52;;;;;;;25.39;31.92;95409.03;4988156;28;20034;-28
2021/12/25 00:28:46;;;;;;;4.20;0.85;;;;;;;25.40;32.05;95415.97;4987058;28;20022;-28
2021/12/25 00:36:10;;;;;;;1.95;0.65;;;;;;;25.40;32.06;95400.22;4989048;28;20030;-31
2021/12/25 00:38:37;;;;;;;1.55;0.70;;;;;;;25.39;31.90;95403.78;4970924;28;20036;-26
2021/12/25 00:41:05;;;;;;;0.95;0.40;;;;;;;25.39;32.23;95403.78;4987828;28;20033;-27
2021/12/25 00:43:31;;;;;;;1.70;0.70;;;;;;;25.40;31.87;95397.59;4986874;28;20026;-28
2021/12/25 00:45:56;;;;;;;0.68;0.40;;;;;;;25.38;31.96;95391.63;4991426;28;20041;-26
2021/12/25 00:48:22;;;;;;;1.40;0.63;;;;;;;25.39;32.09;95394.13;4943836;28;20550;-28
2021/12/25 00:50:47;;;;;;;0.70;0.50;;;;;;;25.39;31.95;95396.75;4985593;28;20042;-25
2021/12/25 00:53:12;;;;;;;3.22;0.50;;;;;;;25.39;32.00;95398.53;4985475;28;20527;-30
2021/12/25 00:55:38;;;;;;;0.63;0.50;;;;;;;25.39;32.01;95393.28;4989217;28;20069;-29
2021/12/25 00:58:03;;;;;;;3.55;0.77;;;;;;;25.39;32.18;95393.28;4987520;28;20382;-29
2021/12/25 01:00:29;;;;;;;0.75;0.38;;;;;;;25.39;32.10;95398.53;4988695;28;20455;-30
2021/12/25 01:02:54;;;;;;;0.70;0.57;;;;;;;25.38;32.04;95387.22;4986472;28;20034;-28
2021/12/25 01:05:19;;;;;;;1.25;0.65;;;;;;;25.39;31.99;95388.03;4984503;28;20029;-30
2021/12/25 01:07:45;;;;;;;1.02;0.63;;;;;;;25.38;32.02;95391.63;4970618;28;20026;-29
2021/12/25 01:10:14;;;;;;;0.95;0.50;;;;;;;25.38;31.97;95384.59;4974870;28;20048;-30
2021/12/25 01:13:08;;;;;;;1.65;0.70;;;;;;;25.38;32.09;95394.25;4984182;28;20030;-29
2021/12/25 01:15:35;;;;;;;2.45;0.50;;;;;;;25.38;31.96;95396.88;4990028;28;20063;-28
2021/12/25 01:18:27;;;;;;;0.50;0.40;;;;;;;25.37;32.13;95396.03;4967975;28;20417;-26
2021/12/25 01:29:07;;;;;;;0.80;0.63;;;;;;;25.36;32.03;95375.19;4982799;28;20025;-26
2021/12/25 01:41:42;;;;;;;1.85;0.55;;;;;;;25.36;31.97;95385.66;4987746;28;20141;-30
2021/12/25 01:49:32;;;;;;;0.73;0.55;;;;;;;25.35;31.96;95373.50;4989675;28;20040;-28
2021/12/25 01:51:58;;;;;;;0.98;0.50;;;;;;;25.35;31.98;95376.13;4984158;28;20030;-27
2021/12/25 01:54:23;;;;;;;0.50;0.50;;;;;;;25.35;32.07;95381.38;4987198;28;20790;-29
2021/12/25 01:56:49;;;;;;;0.50;0.50;;;;;;;25.34;32.13;95382.31;4984775;28;20428;-29
2021/12/25 01:59:15;;;;;;;0.52;0.50;;;;;;;25.34;31.97;95371.81;4983832;28;20030;-28
2021/12/25 02:01:40;;;;;;;2.10;0.65;;;;;;;25.34;32.09;95375.28;4984335;28;20076;-29
2021/12/25 02:04:06;;;;;;;0.57;0.43;;;;;;;25.34;32.01;95380.53;4986292;28;20026;-29
2021/12/25 02:06:31;;;;;;;1.05;0.45;;;;;;;25.35;32.09;95386.63;4985238;28;20423;-28
2021/12/25 02:08:56;;;;;;;0.30;0.30;;;;;;;25.34;32.03;95370.03;4987431;28;20045;-27
2021/12/25 02:11:22;;;;;;;1.30;0.60;;;;;;;25.34;32.01;95385.78;4981760;28;20053;-25
2021/12/25 02:13:47;;;;;;;0.68;0.55;;;;;;;25.35;32.07;95381.38;4983477;28;20034;-27
2021/12/25 02:16:17;;;;;;;0.70;0.50;;;;;;;25.33;31.97;95378.88;4947576;28;20018;-29
2021/12/25 02:19:06;;;;;;;1.25;0.40;;;;;;;25.34;32.07;95379.69;4967837;28;20965;-26
2021/12/25 02:21:37;;;;;;;0.82;0.35;;;;;;;25.35;32.07;95376.13;4985543;28;20530;-29
2021/12/25 02:24:04;;;;;;;0.45;0.40;;;;;;;25.34;32.20;95374.44;4986355;28;20033;-29
2021/12/25 02:26:30;;;;;;;0.93;0.40;;;;;;;25.33;32.01;95378.00;4969188;28;20107;-27
2021/12/25 02:28:56;;;;;;;1.48;0.45;;;;;;;25.33;32.12;95372.78;4987175;28;20030;-28
2021/12/25 02:31:21;;;;;;;0.30;0.30;;;;;;;25.33;32.10;95362.28;4978541;28;20488;-29
2021/12/25 02:33:47;;;;;;;1.05;0.50;;;;;;;25.33;32.08;95351.78;4990822;28;20030;-29
2021/12/25 02:36:13;;;;;;;0.55;0.40;;;;;;;25.33;32.08;95359.66;4989093;28;20057;-27
2021/12/25 02:38:38;;;;;;;0.55;0.50;;;;;;;25.33;32.13;95357.03;4992876;28;20059;-28
2021/12/25 02:41:04;;;;;;;0.60;0.50;;;;;;;25.33;32.02;95351.78;4956777;28;20034;-27
2021/12/25 02:43:29;;;;;;;0.57;0.45;;;;;;;25.31;32.13;95337.03;4991586;28;20554;-29
2021/12/25 02:45:55;;;;;;;0.45;0.40;;;;;;;25.33;32.12;95346.56;4986875;28;20026;-27
2021/12/25 02:48:21;;;;;;;0.60;0.47;;;;;;;25.31;32.03;95334.41;4972233;28;20104;-30
2021/12/25 02:50:47;;;;;;;2.15;1.30;;;;;;;25.30;32.11;95332.72;4989526;28;20061;-29
2021/12/25 02:53:12;;;;;;;5.13;1.23;;;;;;;25.33;32.26;95338.69;4987055;28;20042;-26
2021/12/25 02:55:38;;;;;;;1.45;0.60;;;;;;;25.31;32.30;95334.41;4990017;28;20030;-30
2021/12/25 02:58:04;;;;;;;2.33;0.50;;;;;;;25.30;32.29;95340.59;4986762;28;20033;-30
2021/12/25 03:00:33;;;;;;;1.35;0.80;;;;;;;25.30;32.19;95327.50;4986420;28;20034;-27
2021/12/25 03:03:00;;;;;;;1.10;0.75;;;;;;;25.31;32.30;95330.94;4966192;28;20089;-29
2021/12/25 03:05:25;;;;;;;1.13;0.70;;;;;;;25.29;32.27;95325.78;4967187;28;20029;-29
2021/12/25 03:07:51;;;;;;;1.15;0.70;;;;;;;25.30;32.15;95324.88;4990550;28;20027;-27
2021/12/25 03:10:16;;;;;;;0.63;0.50;;;;;;;25.30;32.13;95326.63;4988535;28;20034;-27
2021/12/25 03:13:17;;;;;;;0.80;0.50;;;;;;;25.31;32.25;95315.19;4977178;28;20026;-27
2021/12/25 03:15:47;;;;;;;1.33;0.60;;;;;;;25.31;32.23;95328.31;4986686;28;20463;-28
2021/12/25 03:18:14;;;;;;;1.23;0.60;;;;;;;25.30;32.06;95331.88;4977504;28;20530;-27
2021/12/25 03:20:44;;;;;;;1.08;0.60;;;;;;;25.29;32.09;95324.97;4972452;28;20089;-27
2021/12/25 03:23:15;;;;;;;0.55;0.50;;;;;;;25.29;32.23;95325.78;4992107;28;20029;-33
2021/12/25 03:25:40;;;;;;;0.88;0.52;;;;;;;25.29;32.01;95344.16;4989016;28;20032;-28
2021/12/25 03:28:06;;;;;;;1.33;0.57;;;;;;;25.29;32.21;95352.00;4986050;28;20038;-31
2021/12/25 03:30:36;;;;;;;1.75;0.40;;;;;;;25.29;32.61;95357.25;4990488;28;20026;-26
2021/12/25 03:33:02;;;;;;;1.17;0.50;;;;;;;25.29;32.21;95367.75;4991489;28;20026;-27
2021/12/25 03:35:28;;;;;;;1.38;0.60;;;;;;;25.28;32.24;95360.03;4989499;28;20121;-27
2021/12/25 03:37:53;;;;;;;1.88;0.50;;;;;;;25.30;32.14;95363.34;4989838;28;20029;-29
2021/12/25 03:40:19;;;;;;;0.60;0.40;;;;;;;25.29;32.14;95346.78;4974740;28;20274;-28
2021/12/25 03:42:44;;;;;;;0.50;0.50;;;;;;;25.29;32.13;95345.94;4983738;28;20104;-28
2021/12/25 03:45:09;;;;;;;1.85;0.40;;;;;;;25.30;32.25;95347.63;4971811;28;20064;-28
2021/12/25 03:47:37;;;;;;;2.55;0.55;;;;;;;25.29;32.12;95351.19;4990593;28;20038;-29
2021/12/25 03:58:03;;;;;;;0.70;0.40;;;;;;;25.29;32.10;95336.28;4987156;28;20049;-28
2021/12/25 04:00:31;;;;;;;1.75;0.40;;;;;;;25.29;32.18;95331.03;4971627;28;20041;-28
2021/12/25 04:03:01;;;;;;;0.88;0.50;;;;;;;25.30;32.23;95331.88;4986910;28;20030;-28
2021/12/25 04:05:30;;;;;;;0.55;0.40;;;;;;;25.28;32.17;95318.88;4990646;28;20034;-28
2021/12/25 04:08:07;;;;;;;0.57;0.43;;;;;;;25.28;32.25;95323.31;4973309;28;20037;-27
2021/12/25 04:10:38;;;;;;;1.10;0.40;;;;;;;25.28;32.20;95326.75;4957890;28;20028;-28
2021/12/25 04:13:06;;;;;;;2.03;0.47;;;;;;;25.29;32.17;95323.16;4953985;28;20025;-30
2021/12/25 04:15:32;;;;;;;1.30;0.60;;;;;;;25.27;32.05;95311.13;4992174;28;20056;-30
2021/12/25 04:17:57;;;;;;;1.33;0.50;;;;;;;25.28;32.18;95313.63;4988593;28;20525;-29
2021/12/25 04:20:23;;;;;;;1.55;0.70;;;;;;;25.29;31.99;95320.56;4939812;28;20046;-30
2021/12/25 04:22:58;;;;;;;2.25;0.80;;;;;;;25.28;32.15;95324.13;4988817;28;20488;-29
2021/12/25 04:25:27;;;;;;;1.00;0.40;;;;;;;25.28;32.26;95313.63;4991508;28;20088;-28
2021/12/25 04:27:54;;;;;;;1.95;0.40;;;;;;;25.28;32.20;95324.13;4987396;28;20053;-26
2021/12/25 04:31:01;;;;;;;1.40;0.40;;;;;;;25.28;32.09;95324.13;4986923;28;20026;-27
2021/12/25 05:03:08;;;;;;;0.35;0.30;;;;;;;25.25;32.22;95281.59;4988293;28;20029;-25
2021/12/25 05:05:35;;;;;;;0.52;0.40;;;;;;;25.25;32.17;95282.41;4990176;28;20485;-30
2021/12/25 05:08:00;;;;;;;0.90;0.50;;;;;;;25.25;32.31;95271.91;4990524;28;20419;-30
2021/12/25 05:10:25;;;;;;;2.28;0.65;;;;;;;25.25;32.21;95274.53;4968463;28;20088;-30
2021/12/25 05:12:51;;;;;;;1.52;0.40;;;;;;;25.25;32.09;95277.16;4984851;28;20026;-26
2021/12/25 05:15:17;;;;;;;0.75;0.40;;;;;;;25.25;32.13;95281.59;4984637;28;20030;-27
2021/12/25 05:17:42;;;;;;;0.52;0.30;;;;;;;25.25;32.04;95277.16;4990808;28;20463;-27
2021/12/25 05:20:08;;;;;;;0.40;0.30;;;;;;;25.25;32.25;95290.25;4988987;28;20026;-27
2021/12/25 05:22:33;;;;;;;1.58;0.45;;;;;;;25.25;32.26;95278.97;4988288;28;20397;-31
2021/12/25 05:24:59;;;;;;;0.52;0.25;;;;;;;25.25;32.20;95287.66;4987439;28;20065;-27
2021/12/25 05:27:24;;;;;;;0.30;0.30;;;;;;;25.25;32.22;95290.25;4969110;28;20631;-28
2021/12/25 05:29:50;;;;;;;1.75;0.38;;;;;;;25.25;31.92;95286.81;4972669;28;20030;-30
2021/12/25 05:32:16;;;;;;;0.98;0.50;;;;;;;25.24;32.12;95285.97;4986326;28;20037;-27
2021/12/25 05:34:41;;;;;;;1.05;0.38;;;;;;;25.25;32.27;95290.25;4988592;28;20441;-25
2021/12/25 05:37:07;;;;;;;0.47;0.32;;;;;;;25.24;32.21;95285.16;4990527;28;20045;-29
2021/12/25 05:39:33;;;;;;;1.02;0.60;;;;;;;25.24;32.25;95285.97;4989386;28;20026;-28
2021/12/25 05:41:59;;;;;;;0.47;0.30;;;;;;;25.25;32.09;95287.66;4983457;28;20121;-28
2021/12/25 05:44:25;;;;;;;0.77;0.50;;;;;;;25.25;32.32;95286.81;4985679;28;20026;-29
2021/12/25 05:46:50;;;;;;;0.43;0.40;;;;;;;25.25;32.10;95290.25;4983268;28;20048;-28
2021/12/25 05:49:15;;;;;;;0.60;0.52;;;;;;;25.26;31.97;95291.13;4987302;28;20555;-27
2021/12/25 05:51:41;;;;;;;1.58;0.30;;;;;;;25.24;32.17;95288.59;4987655;28;20026;-27
2021/12/25 05:54:06;;;;;;;1.42;0.40;;;;;;;25.25;32.17;95292.06;4986722;28;20033;-29
2021/12/25 05:56:32;;;;;;;0.30;0.30;;;;;;;25.24;32.07;95283.34;4988201;28;20459;-27
2021/12/25 05:58:57;;;;;;;1.60;0.40;;;;;;;25.25;32.13;95278.97;4986113;28;20034;-28
2021/12/25 06:01:23;;;;;;;0.40;0.40;;;;;;;25.24;32.32;95275.50;4988856;28;20030;-31
2021/12/25 06:03:48;;;;;;;0.38;0.30;;;;;;;25.24;32.18;95275.50;4988774;28;20030;-24
2021/12/25 06:06:13;;;;;;;0.40;0.20;;;;;;;25.25;32.16;95282.41;4954991;28;20085;-27
2021/12/25 06:08:39;;;;;;;3.50;0.50;;;;;;;25.24;32.33;95275.50;4993665;28;20041;-27
2021/12/25 06:11:04;;;;;;;0.98;0.35;;;;;;;25.26;32.31;95286.72;4989378;28;20030;-26
2021/12/25 06:13:30;;;;;;;0.40;0.35;;;;;;;25.22;32.25;95272.16;4985396;28;20516;-28
2021/12/25 06:15:56;;;;;;;0.77;0.38;;;;;;;25.25;32.18;95287.66;4986980;28;20022;-28
2021/12/25 06:18:21;;;;;;;2.53;0.52;;;;;;;25.26;32.09;95286.72;4957137;28;20025;-30
2021/12/25 06:20:47;;;;;;;0.20;0.20;;;;;;;25.27;32.24;95290.16;4991418;28;20073;-27
2021/12/25 06:23:12;;;;;;;0.38;0.38;;;;;;;25.26;32.36;95286.72;4977375;28;20031;-27
2021/12/25 06:25:38;;;;;;;0.43;0.40;;;;;;;25.27;32.30;95290.16;4973326;28;20582;-28
2021/12/25 06:28:03;;;;;;;0.63;0.22;;;;;;;25.26;32.31;95289.34;4990592;28;20100;-29
2021/12/25 06:30:29;;;;;;;0.50;0.30;;;;;;;25.26;32.36;95289.34;4991441;28;20030;-27
2021/12/25 06:32:55;;;;;;;0.88;0.50;;;;;;;25.28;32.25;95294.47;4990058;28;20066;-26
2021/12/25 06:35:20;;;;;;;0.40;0.40;;;;;;;25.27;32.32;95290.16;4990270;28;20569;-28
2021/12/25 06:37:46;;;;;;;0.80;0.43;;;;;;;25.27;32.14;95285.75;4990553;28;20126;-27
2021/12/25 06:40:17;;;;;;;0.55;0.40;;;;;;;25.27;32.13;95285.75;4976850;28;20029;-27
2021/12/25 06:42:42;;;;;;;0.47;0.40;;;;;;;25.28;32.27;95297.91;4989012;28;20026;-28
2021/12/25 06:45:08;;;;;;;0.82;0.40;;;;;;;25.27;32.27;95296.25;4990703;28;20038;-27
2021/12/25 06:47:33;;;;;;;0.35;0.35;;;;;;;25.28;32.14;95297.91;4985808;28;20030;-27
2021/12/25 06:49:58;;;;;;;0.40;0.32;;;;;;;25.28;32.32;95297.09;4987471;28;20052;-27
2021/12/25 06:52:24;;;;;;;0.30;0.30;;;;;;;25.28;32.15;95303.16;4987342;28;20030;-28
2021/12/25 06:54:50;;;;;;;0.65;0.40;;;;;;;25.28;32.07;95297.91;4991288;28;20121;-27
2021/12/25 06:57:17;;;;;;;0.20;0.20;;;;;;;25.29;32.15;95304.81;4983305;28;20034;-30
2021/12/25 06:59:42;;;;;;;1.08;0.30;;;;;;;25.30;32.16;95305.66;4969515;28;20037;-29
2021/12/25 07:02:08;;;;;;;0.43;0.43;;;;;;;25.28;32.36;95303.16;4990483;28;20034;-27
2021/12/25 07:04:33;;;;;;;0.50;0.40;;;;;;;25.29;32.16;95304.81;4992425;28;20053;-27
2021/12/25 07:06:59;;;;;;;0.40;0.20;;;;;;;25.30;32.08;95300.41;4991015;28;20060;-28
2021/12/25 07:09:24;;;;;;;0.38;0.30;;;;;;;25.30;32.14;95303.88;4989417;28;20034;-25
2021/12/25 07:11:49;;;;;;;0.30;0.30;;;;;;;25.31;32.33;95308.19;4984815;28;20498;-29
2021/12/25 07:14:15;;;;;;;0.90;0.30;;;;;;;25.31;32.24;95297.69;4990692;28;20030;-28
2021/12/25 07:16:40;;;;;;;0.63;0.40;;;;;;;25.33;32.17;95305.44;4984196;28;20025;-27
2021/12/25 07:19:06;;;;;;;1.95;0.90;;;;;;;25.33;32.17;95299.34;4984425;28;20754;-29
2021/12/25 07:21:31;;;;;;;0.45;0.40;;;;;;;25.33;32.32;95301.97;4989726;28;20579;-30
2021/12/25 07:23:57;;;;;;;0.40;0.40;;;;;;;25.34;32.28;95311.50;4970016;28;20448;-28
2021/12/25 07:26:23;;;;;;;0.75;0.60;;;;;;;25.34;32.33;95306.25;4957849;28;20025;-27
2021/12/25 07:28:48;;;;;;;0.25;0.25;;;;;;;25.35;32.38;95313.19;4956253;28;20685;-26
2021/12/25 07:31:14;;;;;;;0.47;0.30;;;;;;;25.34;32.16;95317.59;4987381;28;20029;-24
2021/12/25 07:33:43;;;;;;;0.28;0.20;;;;;;;25.35;32.24;95328.94;4990394;28;20034;-29
2021/12/25 07:36:09;;;;;;;0.80;0.22;;;;;;;25.35;32.23;95316.63;4972866;28;20049;-27
2021/12/25 07:38:34;;;;;;;3.67;0.70;;;;;;;25.36;32.40;95331.41;4983517;28;20096;-25
2021/12/25 07:41:00;;;;;;;3.20;0.40;;;;;;;25.37;32.47;95327.03;4968179;28;20030;-27
2021/12/25 07:43:25;;;;;;;1.63;0.90;;;;;;;25.37;32.47;95334.88;4986603;28;20121;-26
2021/12/25 07:45:52;;;;;;;10.50;2.70;;;;;;;25.36;32.38;95335.84;4975660;28;20022;-29
2021/12/25 07:48:19;;;;;;;10.77;2.80;;;;;;;25.36;32.50;95341.09;4987363;28;20164;-27
2021/12/25 07:50:45;;;;;;;12.55;2.55;;;;;;;25.36;32.91;95346.34;4988327;28;20490;-28
2021/12/25 07:53:10;;;;;;;13.98;3.28;;;;;;;25.35;32.82;95345.47;4949454;28;20044;-30
2021/12/25 07:55:36;;;;;;;21.23;4.13;;;;;;;25.35;33.04;95350.72;4982252;28;20075;-28
2021/12/25 07:58:01;;;;;;;12.18;3.33;;;;;;;25.34;32.87;95353.47;4966193;28;20483;-32
2021/12/25 08:00:27;;;;;;;20.02;3.83;;;;;;;25.35;32.58;95360.41;4972760;28;20038;-25
2021/12/25 08:02:52;;;;;;;9.15;3.28;;;;;;;25.35;33.03;95355.16;4982309;28;20034;-28
2021/12/25 08:05:18;;;;;;;15.25;3.15;;;;;;;25.35;32.98;95355.97;4971223;28;20046;-28
2021/12/25 08:07:43;;;;;;;12.88;3.58;;;;;;;25.37;32.87;95361.09;4982577;28;20037;-30
2021/12/25 08:10:17;;;;;;;8.32;2.88;;;;;;;25.37;32.77;95361.09;4983743;28;20496;-26
2021/12/25 08:12:53;;;;;;;14.32;2.80;;;;;;;25.38;32.77;95365.41;4965692;28;20706;-30
2021/12/25 08:15:20;;;;;;;9.05;2.92;;;;;;;25.37;32.99;95364.56;4957923;28;20026;-29
2021/12/25 08:17:46;;;;;;;7.88;2.58;;;;;;;25.39;32.93;95364.44;4981351;28;20034;-28
2021/12/25 08:20:12;;;;;;;8.20;3.00;;;;;;;25.38;32.90;95371.50;4965722;28;20084;-30
2021/12/25 08:22:37;;;;;;;8.77;2.58;;;;;;;25.40;32.80;95374.00;4981761;28;20027;-30
2021/12/25 08:25:03;;;;;;;9.82;2.30;;;;;;;25.40;32.95;95374.00;4968693;28;20603;-27
2021/12/25 08:27:29;;;;;;;8.68;2.53;;;;;;;25.41;32.79;95370.41;4983610;28;20037;-31
2021/12/25 08:29:54;;;;;;;6.80;2.50;;;;;;;25.41;32.99;95370.41;4963847;28;20030;-27
2021/12/25 08:32:19;;;;;;;10.57;2.72;;;;;;;25.43;32.85;95373.75;4982412;28;20032;-29
2021/12/25 08:34:45;;;;;;;11.27;2.60;;;;;;;25.43;32.82;95368.50;4983652;28;20030;-30
2021/12/25 08:37:11;;;;;;;6.80;2.28;;;;;;;25.43;32.98;95373.75;4979566;28;20026;-26
2021/12/25 08:39:36;;;;;;;8.35;2.72;;;;;;;25.43;32.99;95376.38;4980447;28;20042;-30
2021/12/25 08:42:04;;;;;;;5.35;2.22;;;;;;;25.43;32.98;95384.25;4952351;28;20701;-29
2021/12/25 08:44:36;;;;;;;6.03;2.33;;;;;;;25.42;32.95;95378.19;4983048;28;20040;-28
2021/12/25 08:47:04;;;;;;;6.47;2.20;;;;;;;25.44;33.00;95385.94;4978867;28;20034;-30
2021/12/25 08:49:29;;;;;;;6.47;2.40;;;;;;;25.44;33.08;95385.94;4980901;28;20030;-31
2021/12/25 08:52:00;;;;;;;7.35;2.65;;;;;;;25.45;33.16;95387.59;4964236;28;20033;-32
2021/12/25 08:54:26;;;;;;;11.40;2.70;;;;;;;25.45;33.14;95387.59;4982121;28;20029;-28
2021/12/25 08:56:51;;;;;;;8.95;2.40;;;;;;;25.44;32.99;95389.38;4982116;28;21863;-28
2021/12/25 08:59:17;;;;;;;4.90;2.03;;;;;;;25.44;33.07;95392.00;4981724;28;20037;-27
2021/12/25 09:01:42;;;;;;;4.97;2.20;;;;;;;25.45;33.13;95398.09;4980773;28;20571;-28
2021/12/25 09:04:08;;;;;;;6.55;2.35;;;;;;;25.45;32.99;95395.47;4983202;28;20038;-31
2021/12/25 09:06:33;;;;;;;5.35;2.20;;;;;;;25.47;33.16;95396.19;4980951;28;21170;-30
2021/12/25 09:08:59;;;;;;;9.00;2.20;;;;;;;25.47;33.17;95405.84;4990309;28;20093;-29
2021/12/25 09:11:24;;;;;;;6.65;2.13;;;;;;;25.47;32.96;95401.44;4981736;28;20034;-29
2021/12/25 09:13:50;;;;;;;5.65;2.10;;;;;;;25.47;33.06;95404.06;4966435;28;20044;-29
2021/12/25 09:16:15;;;;;;;3.55;1.95;;;;;;;25.48;33.11;95408.38;4982026;28;20068;-29
2021/12/25 09:18:41;;;;;;;4.50;1.80;;;;;;;25.47;33.26;95403.22;4982200;28;20042;-27
2021/12/25 09:21:06;;;;;;;5.38;1.83;;;;;;;25.48;33.12;95415.38;4982473;28;22329;-28
2021/12/25 09:23:32;;;;;;;5.47;2.30;;;;;;;25.49;33.12;95404.78;4981047;28;20700;-27
2021/12/25 09:25:57;;;;;;;6.40;2.80;;;;;;;25.50;33.14;95414.31;4962111;28;20052;-27
2021/12/25 09:28:23;;;;;;;4.28;2.03;;;;;;;25.49;33.21;95415.28;4981696;28;20038;-27
2021/12/25 09:30:48;;;;;;;5.53;2.38;;;;;;;25.50;33.37;95411.69;4982101;28;20036;-27
2021/12/25 09:33:14;;;;;;;4.63;1.92;;;;;;;25.51;33.26;95416.00;4979846;28;20488;-26
2021/12/25 09:35:39;;;;;;;12.70;6.03;;;;;;;25.50;33.04;95422.19;4979085;28;20034;-27
2021/12/25 09:38:04;;;;;;;6.90;5.20;;;;;;;25.42;30.83;95424.53;4984144;28;20045;-27
2021/12/25 09:40:30;;;;;;;5.07;4.00;;;;;;;25.28;30.02;95426.38;4983233;28;20696;-26
2021/12/25 09:42:55;;;;;;;4.85;3.50;;;;;;;25.13;30.11;95430.94;4980055;28;20542;-26
2021/12/25 09:45:21;;;;;;;6.25;3.25;;;;;;;24.97;30.21;95428.59;4982460;28;20045;-27
2021/12/25 09:47:46;;;;;;;5.65;2.63;;;;;;;24.89;30.89;95423.06;4966180;28;20094;-27
2021/12/25 09:50:12;;;;;;;8.90;2.97;;;;;;;24.80;31.22;95420.09;4961784;28;20018;-28
2021/12/25 09:52:38;;;;;;;3.50;2.33;;;;;;;24.83;31.60;95428.72;4983283;28;20030;-27
2021/12/25 09:55:04;;;;;;;8.23;2.53;;;;;;;24.82;31.89;95424.44;4983747;28;20420;-27
2021/12/25 09:57:29;;;;;;;3.55;2.25;;;;;;;24.83;31.92;95428.72;4967091;28;20061;-27
2021/12/25 09:59:55;;;;;;;4.22;2.08;;;;;;;24.84;32.18;95422.56;4976760;28;20030;-27
2021/12/25 10:02:20;;;;;;;4.43;2.20;;;;;;;24.86;32.15;95428.53;4980639;28;20114;-26
2021/12/25 10:04:55;;;;;;;6.63;1.98;;;;;;;24.89;32.33;95428.31;4961734;28;20037;-28
2021/12/25 10:07:32;;;;;;;4.55;2.00;;;;;;;24.92;32.33;95425.47;4971113;28;20030;-24
2021/12/25 10:09:59;;;;;;;5.30;2.15;;;;;;;24.94;32.33;95426.19;4981696;28;20040;-27
2021/12/25 10:12:43;;;;;;;8.90;2.40;;;;;;;24.98;32.42;95416.34;4965575;28;20025;-26
2021/12/25 10:15:10;;;;;;;6.88;2.38;;;;;;;25.01;32.48;95414.31;4981167;28;20464;-26
2021/12/25 10:17:48;;;;;;;6.97;2.22;;;;;;;25.03;32.42;95415.06;4962507;28;20052;-28
2021/12/25 10:20:16;;;;;;;9.20;2.50;;;;;;;25.07;32.46;95417.44;4964678;28;20034;-27
2021/12/25 10:22:58;;;;;;;17.80;4.05;;;;;;;25.08;32.56;95417.34;4979796;28;20540;-25
2021/12/25 10:25:24;;;;;;;20.25;4.35;;;;;;;25.11;32.61;95418.91;4982820;28;20109;-28
2021/12/25 10:27:57;;;;;;;22.52;3.95;;;;;;;25.13;32.82;95415.22;4985878;28;20072;-28
2021/12/25 10:30:23;;;;;;;11.93;3.58;;;;;;;25.16;32.65;95414.16;4987193;28;20108;-27
2021/12/25 10:32:48;;;;;;;11.65;3.22;;;;;;;25.11;32.66;95395.31;4976152;28;20049;-29
2021/12/25 10:35:21;;;;;;;11.43;3.38;;;;;;;25.18;32.80;95401.78;4983390;28;20103;-26
2021/12/25 10:37:47;;;;;;;13.10;3.30;;;;;;;25.20;32.69;95399.88;4967341;28;20638;-27
2021/12/25 10:40:32;;;;;;;13.40;3.03;;;;;;;25.22;32.76;95392.75;4982293;28;20033;-26
2021/12/25 10:42:59;;;;;;;10.70;3.00;;;;;;;25.24;32.57;95393.47;4986404;28;20378;-27
2021/12/25 10:45:26;;;;;;;10.05;2.70;;;;;;;25.26;32.66;95394.22;4981197;28;21045;-24
2021/12/25 10:48:06;;;;;;;8.60;3.03;;;;;;;25.28;32.72;95392.28;4984300;28;20033;-26
2021/12/25 10:50:39;;;;;;;8.93;2.78;;;;;;;25.30;32.80;95385.16;4979919;28;20484;-27
2021/12/25 10:53:31;;;;;;;7.15;2.45;;;;;;;25.31;32.68;95381.59;4982930;28;20029;-28
2021/12/25 10:56:10;;;;;;;10.52;2.42;;;;;;;25.35;32.94;95381.38;4983640;28;20026;-25
2021/12/25 10:58:36;;;;;;;10.60;2.67;;;;;;;25.37;32.69;95379.47;4981508;28;20026;-27
2021/12/25 11:01:01;;;;;;;5.18;2.45;;;;;;;25.38;32.83;95381.13;4984747;28;20493;-25
2021/12/25 11:03:31;;;;;;;8.82;2.63;;;;;;;25.37;32.77;95374.22;4986381;28;20856;-27
2021/12/25 11:06:02;;;;;;;6.10;2.35;;;;;;;25.40;32.65;95377.44;4967234;28;20080;-26
2021/12/25 11:08:29;;;;;;;7.75;2.40;;;;;;;25.43;32.81;95384.25;4971512;28;20536;-28
2021/12/25 11:10:58;;;;;;;9.93;2.60;;;;;;;25.42;32.78;95372.94;4988994;28;20062;-29
2021/12/25 11:13:27;;;;;;;4.60;2.30;;;;;;;25.43;32.87;95371.97;4966509;28;20127;-28
2021/12/25 11:16:03;;;;;;;5.43;2.30;;;;;;;25.45;32.92;95375.31;4983484;28;20030;-26
2021/12/25 11:18:30;;;;;;;6.78;2.35;;;;;;;25.48;32.94;95376.06;4982384;28;20029;-28
2021/12/25 11:20:56;;;;;;;8.25;2.05;;;;;;;25.48;32.90;95371.66;4983164;28;20100;-29
2021/12/25 11:23:21;;;;;;;10.52;1.85;;;;;;;25.49;33.05;95365.44;4984208;28;20779;-25
2021/12/25 11:25:47;;;;;;;6.68;2.03;;;;;;;25.51;33.04;95371.41;4984884;28;20034;-26
2021/12/25 11:28:14;;;;;;;5.65;1.77;;;;;;;25.51;33.03;95381.88;4985531;28;20541;-28
2021/12/25 11:30:46;;;;;;;4.65;2.35;;;;;;;25.53;32.95;95374.75;4968558;28;20088;-27
2021/12/25 11:33:12;;;;;;;10.45;2.30;;;;;;;25.53;33.04;95369.50;4982348;28;20983;-28
2021/12/25 11:35:37;;;;;;;3.83;1.92;;;;;;;25.54;32.98;95363.31;4951235;28;20038;-27
2021/12/25 11:38:04;;;;;;;5.07;2.00;;;;;;;25.55;32.97;95362.34;4985824;28;20061;-27
2021/12/25 11:40:30;;;;;;;4.93;1.98;;;;;;;25.56;33.06;95364.06;4985358;28;20113;-29
2021/12/25 11:42:57;;;;;;;4.32;1.65;;;;;;;25.57;32.99;95365.75;4984886;28;20052;-30
2021/12/25 11:45:27;;;;;;;6.75;2.30;;;;;;;25.57;32.98;95360.50;4983156;28;20109;-27
2021/12/25 11:47:54;;;;;;;2.70;1.90;;;;;;;25.59;32.98;95368.22;4985801;28;20056;-26
2021/12/25 11:50:24;;;;;;;4.68;2.05;;;;;;;25.59;33.15;95356.91;4966917;28;20278;-25
2021/12/25 11:58:25;;;;;;;3.30;1.60;;;;;;;25.57;32.96;95365.75;4967176;28;20034;-26
2021/12/25 12:00:51;;;;;;;5.60;2.00;;;;;;;25.60;33.14;95361.22;4979988;28;20710;-30
2021/12/25 12:03:41;;;;;;;2.58;1.55;;;;;;;25.59;33.07;95357.72;4977303;28;20070;-27
2021/12/25 12:06:07;;;;;;;3.60;1.67;;;;;;;25.60;33.00;95353.34;4965496;28;20119;-28
2021/12/25 12:08:54;;;;;;;5.85;1.95;;;;;;;25.60;33.27;95342.84;4963409;28;20056;-27
2021/12/25 12:11:24;;;;;;;3.33;1.73;;;;;;;25.61;33.16;95349.75;4982082;28;20038;-29
2021/12/25 12:14:22;;;;;;;4.43;1.80;;;;;;;25.61;33.15;95349.75;4956534;28;20018;-27
2021/12/25 12:16:52;;;;;;;2.95;1.58;;;;;;;25.61;33.08;95344.50;4964842;28;20093;-28
2021/12/25 12:19:30;;;;;;;5.22;1.83;;;;;;;25.62;33.17;95346.22;4978916;28;20596;-27
2021/12/25 12:21:56;;;;;;;6.05;1.77;;;;;;;25.62;33.32;95346.22;4980905;28;20737;-28
2021/12/25 12:25:01;;;;;;;4.32;1.35;;;;;;;25.63;33.26;95347.88;4985058;28;20034;-28
2021/12/25 12:27:11;;;;;;;6.97;1.80;;;;;;;25.63;33.25;95345.25;4985776;28;20034;-30
2021/12/25 12:29:37;;;;;;;3.47;1.73;;;;;;;25.63;33.27;95353.13;4980997;28;20464;-29
2021/12/25 12:32:02;;;;;;;5.15;1.83;;;;;;;25.63;33.13;95345.25;4983001;28;20831;-28
2021/12/25 12:34:37;;;;;;;5.68;1.80;;;;;;;25.64;33.28;95352.16;4982114;28;20034;-27
2021/12/25 12:37:14;;;;;;;4.70;1.70;;;;;;;25.64;33.24;95349.53;4980995;28;20021;-28
2021/12/25 12:40:01;;;;;;;4.88;1.50;;;;;;;25.65;33.37;95348.56;4982440;28;20029;-30
2021/12/25 12:45:07;;;;;;;5.07;1.80;;;;;;;25.65;33.53;95367.78;4990422;28;20104;-29
2021/12/25 12:47:33;;;;;;;6.18;1.50;;;;;;;25.66;33.44;95360.75;4983153;28;20104;-28
2021/12/25 12:49:59;;;;;;;4.35;1.67;;;;;;;25.67;33.46;95367.69;4963497;28;20033;-29